createdAt,value
2019-03-25T00:00:40.023Z,5.83
2019-03-25T00:01:40.014Z,5.86
2019-03-25T00:02:40.012Z,5.86
2019-03-25T00:03:40.002Z,5.91
2019-03-25T00:04:39.994Z,5.94
2019-03-25T00:05:39.986Z,5.97
2019-03-25T00:06:39.978Z,5.94
2019-03-25T00:07:39.973Z,5.93
2019-03-25T00:08:39.965Z,5.98
2019-03-25T00:09:39.957Z,5.87
2019-03-25T00:10:39.950Z,5.82
2019-03-25T00:11:39.942Z,5.86
2019-03-25T00:12:39.936Z,5.86
2019-03-25T00:13:39.930Z,5.84
2019-03-25T00:14:39.922Z,5.91
2019-03-25T00:15:39.913Z,5.82
2019-03-25T00:16:39.906Z,5.84
2019-03-25T00:17:39.898Z,5.86
2019-03-25T00:18:39.890Z,5.83
2019-03-25T00:19:39.884Z,5.86
2019-03-25T00:20:39.879Z,5.84
2019-03-25T00:21:39.870Z,5.79
2019-03-25T00:22:39.862Z,5.79
2019-03-25T00:23:39.857Z,5.80
2019-03-25T00:24:39.849Z,5.68
2019-03-25T00:25:39.840Z,5.69
2019-03-25T00:26:39.834Z,5.61
2019-03-25T00:27:39.827Z,5.64
2019-03-25T00:28:39.824Z,5.62
2019-03-25T00:29:39.810Z,5.64
2019-03-25T00:30:39.804Z,5.66
2019-03-25T00:31:39.801Z,5.71
2019-03-25T00:32:39.789Z,5.69
2019-03-25T00:33:39.784Z,5.64
2019-03-25T00:34:39.775Z,5.64
2019-03-25T00:35:39.767Z,5.72
2019-03-25T00:36:39.762Z,5.76
2019-03-25T00:37:39.752Z,5.75
2019-03-25T00:38:39.745Z,5.76
2019-03-25T00:39:39.737Z,5.79
2019-03-25T00:40:39.731Z,5.84
2019-03-25T00:41:39.722Z,5.93
2019-03-25T00:42:39.715Z,5.82
2019-03-25T00:43:39.707Z,5.89
2019-03-25T00:44:39.702Z,5.84
2019-03-25T00:45:39.694Z,5.89
2019-03-25T00:46:39.690Z,5.97
2019-03-25T00:47:39.681Z,5.87
2019-03-25T00:48:39.674Z,5.91
2019-03-25T00:49:39.664Z,5.94
2019-03-25T00:50:39.657Z,5.91
2019-03-25T00:51:39.651Z,6.02
2019-03-25T00:52:39.643Z,6.01
2019-03-25T00:53:39.635Z,5.99
2019-03-25T00:54:49.513Z,6.01
2019-03-25T00:55:39.620Z,5.97
2019-03-25T00:56:39.613Z,5.94
2019-03-25T00:57:39.605Z,5.98
2019-03-25T00:58:39.599Z,5.99
2019-03-25T00:59:39.592Z,6.05
2019-03-25T01:00:39.587Z,5.97
2019-03-25T01:01:39.577Z,6.12
2019-03-25T01:02:39.569Z,6.12
2019-03-25T01:03:39.563Z,6.11
2019-03-25T01:04:39.559Z,6.01
2019-03-25T01:05:39.551Z,6.16
2019-03-25T01:06:39.540Z,6.20
2019-03-25T01:07:39.533Z,6.14
2019-03-25T01:08:39.528Z,6.07
2019-03-25T01:09:39.520Z,6.20
2019-03-25T01:10:39.516Z,6.19
2019-03-25T01:11:48.591Z,6.20
2019-03-25T01:12:39.498Z,6.26
2019-03-25T01:13:39.491Z,6.16
2019-03-25T01:14:39.485Z,6.22
2019-03-25T01:15:39.476Z,6.26
2019-03-25T01:16:39.500Z,6.20
2019-03-25T01:17:39.464Z,6.17
2019-03-25T01:18:39.456Z,6.33
2019-03-25T01:19:39.450Z,6.28
2019-03-25T01:20:39.445Z,6.30
2019-03-25T01:21:39.438Z,6.28
2019-03-25T01:22:39.427Z,6.31
2019-03-25T01:23:39.420Z,6.33
2019-03-25T01:24:39.414Z,6.35
2019-03-25T01:25:39.407Z,6.38
2019-03-25T01:26:39.405Z,6.33
2019-03-25T01:27:39.392Z,6.46
2019-03-25T01:28:39.386Z,6.42
2019-03-25T01:29:39.378Z,6.52
2019-03-25T01:30:39.372Z,6.51
2019-03-25T01:31:39.369Z,6.45
2019-03-25T01:32:39.357Z,6.49
2019-03-25T01:33:39.348Z,6.51
2019-03-25T01:34:39.343Z,6.45
2019-03-25T01:35:39.335Z,6.44
2019-03-25T01:36:39.330Z,6.48
2019-03-25T01:37:39.321Z,6.49
2019-03-25T01:38:39.315Z,6.51
2019-03-25T01:39:39.307Z,6.57
2019-03-25T01:40:39.300Z,6.60
2019-03-25T01:41:39.292Z,6.62
2019-03-25T01:42:39.287Z,6.57
2019-03-25T01:43:39.280Z,6.57
2019-03-25T01:44:39.273Z,6.59
2019-03-25T01:45:39.264Z,6.60
2019-03-25T01:46:39.258Z,6.59
2019-03-25T01:47:39.252Z,6.66
2019-03-25T01:48:39.245Z,6.52
2019-03-25T01:49:39.235Z,6.59
2019-03-25T01:50:39.228Z,6.54
2019-03-25T01:51:39.223Z,6.49
2019-03-25T01:52:39.215Z,6.54
2019-03-25T01:53:39.208Z,6.44
2019-03-25T01:54:39.203Z,6.45
2019-03-25T01:55:39.195Z,6.56
2019-03-25T01:56:39.188Z,6.48
2019-03-25T01:57:39.180Z,6.44
2019-03-25T01:58:39.173Z,6.51
2019-03-25T01:59:39.165Z,6.45
2019-03-25T02:00:39.160Z,6.46
2019-03-25T02:01:39.152Z,6.51
2019-03-25T02:02:39.145Z,6.60
2019-03-25T02:03:39.139Z,6.51
2019-03-25T02:04:39.133Z,6.63
2019-03-25T02:05:39.124Z,6.59
2019-03-25T02:06:39.116Z,6.52
2019-03-25T02:07:39.110Z,6.56
2019-03-25T02:08:39.105Z,6.62
2019-03-25T02:09:39.095Z,6.62
2019-03-25T02:10:39.088Z,6.66
2019-03-25T02:11:39.082Z,6.74
2019-03-25T02:12:39.079Z,6.69
2019-03-25T02:13:39.069Z,6.64
2019-03-25T02:14:39.061Z,6.70
2019-03-25T02:15:39.055Z,6.70
2019-03-25T02:16:39.048Z,6.75
2019-03-25T02:17:39.041Z,6.84
2019-03-25T02:18:39.037Z,6.79
2019-03-25T02:19:39.029Z,6.72
2019-03-25T02:20:39.020Z,6.64
2019-03-25T02:21:39.015Z,6.79
2019-03-25T02:22:39.105Z,6.77
2019-03-25T02:23:38.998Z,6.67
2019-03-25T02:24:38.993Z,6.63
2019-03-25T02:25:38.983Z,6.59
2019-03-25T02:26:38.977Z,6.59
2019-03-25T02:27:38.971Z,6.54
2019-03-25T02:28:38.966Z,6.51
2019-03-25T02:29:38.957Z,6.49
2019-03-25T02:30:38.951Z,6.49
2019-03-25T02:31:38.943Z,6.42
2019-03-25T02:32:38.939Z,6.41
2019-03-25T02:33:38.928Z,6.48
2019-03-25T02:34:38.926Z,6.45
2019-03-25T02:35:38.916Z,6.60
2019-03-25T02:36:38.909Z,6.56
2019-03-25T02:37:38.903Z,6.62
2019-03-25T02:38:38.894Z,6.57
2019-03-25T02:39:38.888Z,6.59
2019-03-25T02:40:38.900Z,6.60
2019-03-25T02:41:38.874Z,6.66
2019-03-25T02:42:38.865Z,6.60
2019-03-25T02:43:38.859Z,6.66
2019-03-25T02:44:38.854Z,6.62
2019-03-25T02:45:38.846Z,6.64
2019-03-25T02:46:38.842Z,6.69
2019-03-25T02:47:38.830Z,6.72
2019-03-25T02:48:38.826Z,6.79
2019-03-25T02:49:38.824Z,6.87
2019-03-25T02:50:38.811Z,6.82
2019-03-25T02:51:38.804Z,6.84
2019-03-25T02:52:38.796Z,6.84
2019-03-25T02:53:38.789Z,6.85
2019-03-25T02:54:38.823Z,6.88
2019-03-25T02:55:42.042Z,6.87
2019-03-25T02:56:38.770Z,6.87
2019-03-25T02:57:38.762Z,6.96
2019-03-25T02:58:38.754Z,7.03
2019-03-25T02:59:38.747Z,6.92
2019-03-25T03:00:38.740Z,6.88
2019-03-25T03:01:38.734Z,6.92
2019-03-25T03:02:38.728Z,6.88
2019-03-25T03:03:38.720Z,6.84
2019-03-25T03:04:38.714Z,6.85
2019-03-25T03:05:38.707Z,6.78
2019-03-25T03:06:38.701Z,6.57
2019-03-25T03:07:38.692Z,6.63
2019-03-25T03:08:38.685Z,6.56
2019-03-25T03:09:38.678Z,6.60
2019-03-25T03:10:38.742Z,6.51
2019-03-25T03:11:38.672Z,6.44
2019-03-25T03:12:38.663Z,6.46
2019-03-25T03:13:38.651Z,6.46
2019-03-25T03:14:38.643Z,6.46
2019-03-25T03:15:38.636Z,6.39
2019-03-25T03:16:38.630Z,6.28
2019-03-25T03:17:38.639Z,6.31
2019-03-25T03:18:38.617Z,6.28
2019-03-25T03:19:38.613Z,6.14
2019-03-25T03:20:38.601Z,6.20
2019-03-25T03:21:38.595Z,6.05
2019-03-25T03:22:38.595Z,5.97
2019-03-25T03:23:38.583Z,5.94
2019-03-25T03:24:38.573Z,5.87
2019-03-25T03:25:38.570Z,5.83
2019-03-25T03:26:38.563Z,5.84
2019-03-25T03:27:38.552Z,5.83
2019-03-25T03:28:38.544Z,5.73
2019-03-25T03:29:38.539Z,5.80
2019-03-25T03:30:38.532Z,5.83
2019-03-25T03:31:38.524Z,5.76
2019-03-25T03:32:38.520Z,5.73
2019-03-25T03:33:38.509Z,5.68
2019-03-25T03:34:38.504Z,5.72
2019-03-25T03:35:38.497Z,5.73
2019-03-25T03:36:38.488Z,5.71
2019-03-25T03:37:38.483Z,5.68
2019-03-25T03:38:38.474Z,5.66
2019-03-25T03:39:38.468Z,5.66
2019-03-25T03:40:38.461Z,5.54
2019-03-25T03:41:38.481Z,5.62
2019-03-25T03:42:38.445Z,5.47
2019-03-25T03:43:38.446Z,5.53
2019-03-25T03:44:38.437Z,5.57
2019-03-25T03:45:38.450Z,5.48
2019-03-25T03:46:38.418Z,5.56
2019-03-25T03:47:38.409Z,5.56
2019-03-25T03:48:38.404Z,5.48
2019-03-25T03:49:38.395Z,5.56
2019-03-25T03:50:38.388Z,5.54
2019-03-25T03:51:38.382Z,5.50
2019-03-25T03:52:38.377Z,5.48
2019-03-25T03:53:38.365Z,5.46
2019-03-25T03:54:38.358Z,5.48
2019-03-25T03:55:38.350Z,5.50
2019-03-25T03:56:38.344Z,5.38
2019-03-25T03:57:38.340Z,5.35
2019-03-25T03:58:38.331Z,5.35
2019-03-25T03:59:38.322Z,5.32
2019-03-25T04:00:38.316Z,5.36
2019-03-25T04:01:38.310Z,5.36
2019-03-25T04:02:38.314Z,5.32
2019-03-25T04:03:38.296Z,5.30
2019-03-25T04:04:38.287Z,5.29
2019-03-25T04:05:38.283Z,5.17
2019-03-25T04:06:38.271Z,5.21
2019-03-25T04:07:38.266Z,5.25
2019-03-25T04:08:38.257Z,5.21
2019-03-25T04:09:38.249Z,5.20
2019-03-25T04:10:38.244Z,5.11
2019-03-25T04:11:38.236Z,5.10
2019-03-25T04:12:38.232Z,5.02
2019-03-25T04:13:38.222Z,4.97
2019-03-25T04:14:38.214Z,5.00
2019-03-25T04:15:38.215Z,4.94
2019-03-25T04:16:38.202Z,4.93
2019-03-25T04:17:38.191Z,4.96
2019-03-25T04:18:38.204Z,4.92
2019-03-25T04:19:38.179Z,4.96
2019-03-25T04:20:38.175Z,4.89
2019-03-25T04:21:38.165Z,4.89
2019-03-25T04:22:38.157Z,4.90
2019-03-25T04:23:38.152Z,4.78
2019-03-25T04:24:38.155Z,4.80
2019-03-25T04:25:38.135Z,4.73
2019-03-25T04:26:38.127Z,4.80
2019-03-25T04:27:38.119Z,4.75
2019-03-25T04:28:38.112Z,4.77
2019-03-25T04:29:38.104Z,4.77
2019-03-25T04:30:38.097Z,4.62
2019-03-25T04:31:38.100Z,4.77
2019-03-25T04:32:38.116Z,4.60
2019-03-25T04:33:38.076Z,4.67
2019-03-25T04:34:38.067Z,4.66
2019-03-25T04:35:38.062Z,4.70
2019-03-25T04:36:38.051Z,4.62
2019-03-25T04:37:38.044Z,4.60
2019-03-25T04:38:38.036Z,4.59
2019-03-25T04:39:38.028Z,4.53
2019-03-25T04:40:38.024Z,4.53
2019-03-25T04:41:38.017Z,4.56
2019-03-25T04:42:38.006Z,4.56
2019-03-25T04:43:37.999Z,4.45
2019-03-25T04:44:37.991Z,4.53
2019-03-25T04:45:37.982Z,4.42
2019-03-25T04:46:37.975Z,4.56
2019-03-25T04:47:37.968Z,4.58
2019-03-25T04:48:37.960Z,4.58
2019-03-25T04:49:37.953Z,4.45
2019-03-25T04:50:37.945Z,4.42
2019-03-25T04:51:37.936Z,4.48
2019-03-25T04:52:37.932Z,4.44
2019-03-25T04:53:37.923Z,4.52
2019-03-25T04:54:37.914Z,4.34
2019-03-25T04:55:37.907Z,4.37
2019-03-25T04:56:40.035Z,4.45
2019-03-25T04:57:37.892Z,4.42
2019-03-25T04:58:37.888Z,4.48
2019-03-25T04:59:37.877Z,4.49
2019-03-25T05:00:37.869Z,4.45
2019-03-25T05:01:37.861Z,4.40
2019-03-25T05:02:37.855Z,4.41
2019-03-25T05:03:37.847Z,4.53
2019-03-25T05:04:37.841Z,4.53
2019-03-25T05:05:37.830Z,4.52
2019-03-25T05:06:37.823Z,4.44
2019-03-25T05:07:37.816Z,4.55
2019-03-25T05:08:37.807Z,4.50
2019-03-25T05:09:37.803Z,4.52
2019-03-25T05:10:37.795Z,4.44
2019-03-25T05:11:37.786Z,4.53
2019-03-25T05:12:37.778Z,4.49
2019-03-25T05:13:37.769Z,4.49
2019-03-25T05:14:37.763Z,4.49
2019-03-25T05:15:37.752Z,4.44
2019-03-25T05:16:37.746Z,4.42
2019-03-25T05:17:37.742Z,4.50
2019-03-25T05:18:37.731Z,4.41
2019-03-25T05:19:37.724Z,4.50
2019-03-25T05:20:37.718Z,4.35
2019-03-25T05:21:37.708Z,4.45
2019-03-25T05:22:37.701Z,4.42
2019-03-25T05:23:37.694Z,4.42
2019-03-25T05:24:37.685Z,4.42
2019-03-25T05:25:37.676Z,4.45
2019-03-25T05:26:37.670Z,4.49
2019-03-25T05:27:37.663Z,4.56
2019-03-25T05:28:37.654Z,4.59
2019-03-25T05:29:37.646Z,4.68
2019-03-25T05:30:37.641Z,4.63
2019-03-25T05:31:37.632Z,4.63
2019-03-25T05:32:37.626Z,4.62
2019-03-25T05:33:37.618Z,4.80
2019-03-25T05:34:37.608Z,4.75
2019-03-25T05:35:37.600Z,4.78
2019-03-25T05:36:37.593Z,4.77
2019-03-25T05:37:37.587Z,4.67
2019-03-25T05:38:37.578Z,4.71
2019-03-25T05:39:37.572Z,4.80
2019-03-25T05:40:37.563Z,4.90
2019-03-25T05:41:37.554Z,4.78
2019-03-25T05:42:37.548Z,4.84
2019-03-25T05:43:37.540Z,4.78
2019-03-25T05:44:37.531Z,4.77
2019-03-25T05:45:37.523Z,4.94
2019-03-25T05:46:37.517Z,4.90
2019-03-25T05:47:37.510Z,4.90
2019-03-25T05:48:37.503Z,4.92
2019-03-25T05:49:37.493Z,4.96
2019-03-25T05:50:37.486Z,5.02
2019-03-25T05:51:37.483Z,5.02
2019-03-25T05:52:37.469Z,4.97
2019-03-25T05:53:37.462Z,5.00
2019-03-25T05:54:37.455Z,5.05
2019-03-25T05:55:37.450Z,5.11
2019-03-25T05:56:37.440Z,5.15
2019-03-25T05:57:37.431Z,5.21
2019-03-25T05:58:37.424Z,5.21
2019-03-25T05:59:37.417Z,5.26
2019-03-25T06:00:37.411Z,5.29
2019-03-25T06:01:37.402Z,5.32
2019-03-25T06:02:37.452Z,5.29
2019-03-25T06:03:37.387Z,5.30
2019-03-25T06:04:37.381Z,5.28
2019-03-25T06:05:37.371Z,5.26
2019-03-25T06:06:37.365Z,5.36
2019-03-25T06:07:37.357Z,5.39
2019-03-25T06:08:37.350Z,5.43
2019-03-25T06:09:37.342Z,5.36
2019-03-25T06:10:37.335Z,5.47
2019-03-25T06:11:37.327Z,5.46
2019-03-25T06:12:37.321Z,5.48
2019-03-25T06:13:37.313Z,5.47
2019-03-25T06:14:37.305Z,5.47
2019-03-25T06:15:37.297Z,5.39
2019-03-25T06:16:37.292Z,5.53
2019-03-25T06:17:37.283Z,5.56
2019-03-25T06:18:37.275Z,5.62
2019-03-25T06:19:37.269Z,5.57
2019-03-25T06:20:37.263Z,5.69
2019-03-25T06:21:37.254Z,5.65
2019-03-25T06:22:37.246Z,5.72
2019-03-25T06:23:37.240Z,5.61
2019-03-25T06:24:37.237Z,5.65
2019-03-25T06:25:37.227Z,5.66
2019-03-25T06:26:37.219Z,5.73
2019-03-25T06:27:37.213Z,5.66
2019-03-25T06:28:37.205Z,5.68
2019-03-25T06:29:37.195Z,5.79
2019-03-25T06:30:37.188Z,5.76
2019-03-25T06:31:37.181Z,5.76
2019-03-25T06:32:37.176Z,5.76
2019-03-25T06:33:37.168Z,5.79
2019-03-25T06:34:37.160Z,6.01
2019-03-25T06:35:37.154Z,5.93
2019-03-25T06:36:37.150Z,5.94
2019-03-25T06:37:37.139Z,5.98
2019-03-25T06:38:37.132Z,6.07
2019-03-25T06:39:37.124Z,6.12
2019-03-25T06:40:37.124Z,6.20
2019-03-25T06:41:37.110Z,6.22
2019-03-25T06:42:37.114Z,6.19
2019-03-25T06:43:37.207Z,6.30
2019-03-25T06:44:37.090Z,6.26
2019-03-25T06:45:37.081Z,6.20
2019-03-25T06:46:37.074Z,6.24
2019-03-25T06:47:37.068Z,6.17
2019-03-25T06:48:37.061Z,6.02
2019-03-25T06:49:37.055Z,6.09
2019-03-25T06:50:37.048Z,6.11
2019-03-25T06:51:37.040Z,6.02
2019-03-25T06:53:30.840Z,6.04
2019-03-25T06:56:20.831Z,5.97
2019-03-25T06:57:25.529Z,6.05
2019-03-25T06:58:20.209Z,5.97
2019-03-25T06:59:20.200Z,5.83
2019-03-25T07:01:19.814Z,5.90
2019-03-25T07:02:19.805Z,5.84
2019-03-25T07:03:19.799Z,5.84
2019-03-25T07:04:19.792Z,5.83
2019-03-25T07:05:19.786Z,5.87
2019-03-25T07:06:19.776Z,5.93
2019-03-25T07:07:19.770Z,5.97
2019-03-25T07:08:19.762Z,6.16
2019-03-25T07:09:19.761Z,6.16
2019-03-25T07:10:19.746Z,6.30
2019-03-25T07:11:19.738Z,6.41
2019-03-25T07:12:19.733Z,6.46
2019-03-25T07:13:19.730Z,6.60
2019-03-25T07:14:19.719Z,6.66
2019-03-25T07:15:19.713Z,6.44
2019-03-25T07:16:19.705Z,6.59
2019-03-25T07:17:19.700Z,6.69
2019-03-25T07:18:19.692Z,6.75
2019-03-25T07:19:19.689Z,6.84
2019-03-25T07:20:19.677Z,6.85
2019-03-25T07:21:20.551Z,7.02
2019-03-25T07:22:19.662Z,7.20
2019-03-25T07:23:19.658Z,7.21
2019-03-25T07:24:19.650Z,7.32
2019-03-25T07:25:19.648Z,7.24
2019-03-25T07:26:22.664Z,7.14
2019-03-25T07:27:19.630Z,6.87
2019-03-25T07:28:19.627Z,6.95
2019-03-25T07:29:19.617Z,6.77
2019-03-25T07:30:19.611Z,6.74
2019-03-25T07:31:19.604Z,6.72
2019-03-25T07:32:19.598Z,6.77
2019-03-25T07:33:19.590Z,6.77
2019-03-25T07:34:19.584Z,6.77
2019-03-25T07:35:19.578Z,6.81
2019-03-25T07:36:19.572Z,6.75
2019-03-25T07:37:19.565Z,6.84
2019-03-25T07:38:19.559Z,6.89
2019-03-25T07:39:20.158Z,6.92
2019-03-25T07:40:19.544Z,6.88
2019-03-25T07:41:19.538Z,7.15
2019-03-25T07:42:19.531Z,7.35
2019-03-25T07:43:19.526Z,7.33
2019-03-25T07:44:19.518Z,7.32
2019-03-25T07:45:19.511Z,7.20
2019-03-25T07:46:19.508Z,7.03
2019-03-25T07:47:19.498Z,6.92
2019-03-25T07:48:19.494Z,6.84
2019-03-25T07:49:19.488Z,6.78
2019-03-25T07:50:19.479Z,6.64
2019-03-25T07:51:19.473Z,6.70
2019-03-25T07:52:19.466Z,6.67
2019-03-25T07:54:19.462Z,6.45
2019-03-25T07:55:19.453Z,6.51
2019-03-25T07:56:19.463Z,6.33
2019-03-25T07:57:19.441Z,6.28
2019-03-25T07:58:19.435Z,6.26
2019-03-25T07:59:20.267Z,6.19
2019-03-25T08:00:19.410Z,6.16
2019-03-25T08:01:19.413Z,6.02
2019-03-25T08:02:19.397Z,6.20
2019-03-25T08:03:19.408Z,6.19
2019-03-25T08:04:19.397Z,6.44
2019-03-25T08:05:19.385Z,6.41
2019-03-25T08:06:19.372Z,6.22
2019-03-25T08:07:19.362Z,6.17
2019-03-25T08:08:19.358Z,6.22
2019-03-25T08:09:19.350Z,6.09
2019-03-25T08:10:19.366Z,6.14
2019-03-25T08:11:19.360Z,6.16
2019-03-25T08:12:19.352Z,6.14
2019-03-25T08:13:19.385Z,6.20
2019-03-25T08:14:19.323Z,6.20
2019-03-25T08:15:19.309Z,6.24
2019-03-25T08:16:19.304Z,6.22
2019-03-25T08:17:19.297Z,6.19
2019-03-25T08:18:19.288Z,6.20
2019-03-25T08:19:19.281Z,6.27
2019-03-25T08:20:19.274Z,6.16
2019-03-25T08:21:19.267Z,6.28
2019-03-25T08:22:19.261Z,6.27
2019-03-25T08:23:19.256Z,6.24
2019-03-25T08:24:19.249Z,6.36
2019-03-25T08:25:19.242Z,6.64
2019-03-25T08:26:19.233Z,6.62
2019-03-25T08:27:19.227Z,6.75
2019-03-25T08:28:19.220Z,6.74
2019-03-25T08:29:19.215Z,7.05
2019-03-25T08:30:19.208Z,7.05
2019-03-25T08:31:19.201Z,6.89
2019-03-25T08:32:19.193Z,6.88
2019-03-25T08:33:19.797Z,7.07
2019-03-25T08:35:12.518Z,7.23
2019-03-25T08:36:12.512Z,7.23
2019-03-25T08:37:12.506Z,7.36
2019-03-25T08:38:12.496Z,7.51
2019-03-25T08:39:12.494Z,7.54
2019-03-25T08:41:45.896Z,7.67
2019-03-25T08:43:54.313Z,7.80
2019-03-25T08:44:54.306Z,7.56
2019-03-25T08:45:54.298Z,7.73
2019-03-25T08:46:54.295Z,7.70
2019-03-25T08:47:54.287Z,7.77
2019-03-25T08:48:54.282Z,7.83
2019-03-25T08:49:54.274Z,7.70
2019-03-25T08:50:54.273Z,8.00
2019-03-25T08:51:54.260Z,8.05
2019-03-25T08:52:54.260Z,8.08
2019-03-25T08:53:54.249Z,7.88
2019-03-25T08:54:54.244Z,7.79
2019-03-25T08:55:54.265Z,7.76
2019-03-25T08:56:54.230Z,7.77
2019-03-25T08:57:54.224Z,7.79
2019-03-25T08:58:54.222Z,7.77
2019-03-25T08:59:54.213Z,7.72
2019-03-25T09:00:54.211Z,7.70
2019-03-25T09:01:54.202Z,7.76
2019-03-25T09:02:54.195Z,8.37
2019-03-25T09:03:54.188Z,8.56
2019-03-25T09:04:54.183Z,8.33
2019-03-25T09:05:54.177Z,8.71
2019-03-25T09:06:54.175Z,9.06
2019-03-25T09:07:54.168Z,9.72
2019-03-25T09:08:54.167Z,9.59
2019-03-25T09:09:54.157Z,9.58
2019-03-25T09:10:54.153Z,9.22
2019-03-25T09:11:54.149Z,9.06
2019-03-25T09:12:54.144Z,8.85
2019-03-25T09:13:54.141Z,10.15
2019-03-25T09:14:54.136Z,10.34
2019-03-25T09:15:54.135Z,9.74
2019-03-25T09:16:54.129Z,10.01
2019-03-25T09:17:54.124Z,10.82
2019-03-25T09:18:54.122Z,11.40
2019-03-25T09:19:54.119Z,11.95
2019-03-25T09:20:54.116Z,11.62
2019-03-25T09:21:54.113Z,11.75
2019-03-25T09:22:54.110Z,11.35
2019-03-25T09:23:54.107Z,10.68
2019-03-25T09:24:54.106Z,11.07
2019-03-25T09:25:54.105Z,10.90
2019-03-25T09:26:54.103Z,11.04
2019-03-25T09:27:54.104Z,11.11
2019-03-25T09:28:54.102Z,11.27
2019-03-25T09:29:54.099Z,11.99
2019-03-25T09:30:54.102Z,11.57
2019-03-25T09:31:54.100Z,11.40
2019-03-25T09:32:54.099Z,11.70
2019-03-25T09:33:54.098Z,11.94
2019-03-25T09:34:54.102Z,12.15
2019-03-25T09:35:54.167Z,11.07
2019-03-25T09:36:54.100Z,10.38
2019-03-25T09:37:54.100Z,10.20
2019-03-25T09:38:54.105Z,9.41
2019-03-25T09:39:54.103Z,9.03
2019-03-25T09:40:54.104Z,8.88
2019-03-25T09:41:54.105Z,8.51
2019-03-25T09:42:54.103Z,8.52
2019-03-25T09:43:54.109Z,8.46
2019-03-25T09:44:54.101Z,8.46
2019-03-25T09:45:54.104Z,8.31
2019-03-25T09:46:54.100Z,8.30
2019-03-25T09:47:54.098Z,8.10
2019-03-25T09:48:54.098Z,8.15
2019-03-25T09:49:54.096Z,8.24
2019-03-25T09:50:54.093Z,9.40
2019-03-25T09:51:54.090Z,9.80
2019-03-25T09:52:54.090Z,9.97
2019-03-25T09:53:54.087Z,10.96
2019-03-25T09:54:54.084Z,10.93
2019-03-25T09:55:54.085Z,11.77
2019-03-25T09:56:54.078Z,12.20
2019-03-25T09:57:54.076Z,11.90
2019-03-25T09:58:54.080Z,12.29
2019-03-25T09:59:54.076Z,11.44
2019-03-25T10:00:54.075Z,11.22
2019-03-25T10:01:54.071Z,11.40
2019-03-25T10:02:54.071Z,11.90
2019-03-25T10:03:54.071Z,10.37
2019-03-25T10:04:54.069Z,10.76
2019-03-25T10:05:54.068Z,11.30
2019-03-25T10:06:54.069Z,10.97
2019-03-25T10:07:54.067Z,11.72
2019-03-25T10:08:54.069Z,11.00
2019-03-25T10:09:54.068Z,11.19
2019-03-25T10:10:54.068Z,11.84
2019-03-25T10:11:54.068Z,11.08
2019-03-25T10:12:56.681Z,10.79
2019-03-25T10:13:54.069Z,10.41
2019-03-25T10:14:54.069Z,10.05
2019-03-25T10:15:54.069Z,10.44
2019-03-25T10:16:54.071Z,9.99
2019-03-25T10:17:54.070Z,9.89
2019-03-25T10:18:54.071Z,9.86
2019-03-25T10:19:54.070Z,9.79
2019-03-25T10:20:54.084Z,9.58
2019-03-25T10:21:54.070Z,9.62
2019-03-25T10:22:54.066Z,9.23
2019-03-25T10:23:54.072Z,9.31
2019-03-25T10:24:54.067Z,8.99
2019-03-25T10:25:54.064Z,9.11
2019-03-25T10:26:54.065Z,9.98
2019-03-25T10:27:54.061Z,10.86
2019-03-25T10:28:54.061Z,10.59
2019-03-25T10:29:54.056Z,11.35
2019-03-25T10:30:54.056Z,11.10
2019-03-25T10:31:54.056Z,9.89
2019-03-25T10:32:54.053Z,9.51
2019-03-25T10:33:54.055Z,9.47
2019-03-25T10:34:54.049Z,9.43
2019-03-25T10:35:54.046Z,8.95
2019-03-25T10:36:54.045Z,8.36
2019-03-25T10:37:54.041Z,8.15
2019-03-25T10:38:54.040Z,7.57
2019-03-25T10:39:54.037Z,7.23
2019-03-25T10:40:54.037Z,7.17
2019-03-25T10:41:54.031Z,7.11
2019-03-25T10:42:54.028Z,7.29
2019-03-25T10:43:54.026Z,8.16
2019-03-25T10:44:54.023Z,9.28
2019-03-25T10:45:54.018Z,9.76
2019-03-25T10:46:54.016Z,9.91
2019-03-25T10:47:54.014Z,9.82
2019-03-25T10:48:54.009Z,10.01
2019-03-25T10:49:54.004Z,9.92
2019-03-25T10:50:54.000Z,10.81
2019-03-25T10:51:53.999Z,10.84
2019-03-25T10:52:53.996Z,10.78
2019-03-25T10:53:53.994Z,11.37
2019-03-25T10:55:53.988Z,11.48
2019-03-25T10:56:53.987Z,10.82
2019-03-25T10:57:53.983Z,10.33
2019-03-25T10:58:58.069Z,10.05
2019-03-25T10:59:53.977Z,9.98
2019-03-25T11:00:53.974Z,9.64
2019-03-25T11:01:53.974Z,9.29
2019-03-25T11:02:53.971Z,8.94
2019-03-25T11:03:53.968Z,8.46
2019-03-25T11:04:53.970Z,8.15
2019-03-25T11:05:53.962Z,7.77
2019-03-25T11:06:53.962Z,7.24
2019-03-25T11:07:53.958Z,6.92
2019-03-25T11:08:53.956Z,6.93
2019-03-25T11:09:53.951Z,7.10
2019-03-25T11:10:53.949Z,6.88
2019-03-25T11:11:53.943Z,7.03
2019-03-25T11:12:53.940Z,7.14
2019-03-25T11:13:53.936Z,7.20
2019-03-25T11:14:53.932Z,7.32
2019-03-25T11:15:53.931Z,7.33
2019-03-25T11:16:53.927Z,7.75
2019-03-25T11:17:53.919Z,8.19
2019-03-25T11:18:53.916Z,9.03
2019-03-25T11:19:53.910Z,9.10
2019-03-25T11:20:53.905Z,8.76
2019-03-25T11:21:53.901Z,8.71
2019-03-25T11:22:57.592Z,8.27
2019-03-25T11:23:53.894Z,8.46
2019-03-25T11:24:54.091Z,8.42
2019-03-25T11:25:53.885Z,8.71
2019-03-25T11:26:53.881Z,9.14
2019-03-25T11:27:54.582Z,9.43
2019-03-25T11:28:53.870Z,9.68
2019-03-25T11:29:53.866Z,9.91
2019-03-25T11:30:54.872Z,10.19
2019-03-25T11:31:53.858Z,9.86
2019-03-25T11:32:53.852Z,9.65
2019-03-25T11:33:53.850Z,9.73
2019-03-25T11:34:53.845Z,9.64
2019-03-25T11:35:53.840Z,9.83
2019-03-25T11:36:53.835Z,9.99
2019-03-25T11:37:53.832Z,9.97
2019-03-25T11:38:53.826Z,10.05
2019-03-25T11:39:53.823Z,10.35
2019-03-25T11:40:53.819Z,10.38
2019-03-25T11:41:53.816Z,10.22
2019-03-25T11:42:53.811Z,9.95
2019-03-25T11:43:53.807Z,9.68
2019-03-25T11:44:53.805Z,9.72
2019-03-25T11:45:53.799Z,9.77
2019-03-25T11:46:53.795Z,9.84
2019-03-25T11:47:53.792Z,9.73
2019-03-25T11:48:53.788Z,9.86
2019-03-25T11:49:53.850Z,10.07
2019-03-25T11:50:53.778Z,10.34
2019-03-25T11:51:53.775Z,10.40
2019-03-25T11:52:53.782Z,10.67
2019-03-25T11:53:53.769Z,10.44
2019-03-25T11:54:53.765Z,10.28
2019-03-25T11:55:53.758Z,9.97
2019-03-25T11:56:53.755Z,10.23
2019-03-25T11:57:53.752Z,10.23
2019-03-25T11:58:53.746Z,10.34
2019-03-25T11:59:53.743Z,10.23
2019-03-25T12:00:53.737Z,10.22
2019-03-25T12:01:53.734Z,10.35
2019-03-25T12:02:53.730Z,10.38
2019-03-25T12:03:53.725Z,10.31
2019-03-25T12:04:53.721Z,10.16
2019-03-25T12:05:53.717Z,10.25
2019-03-25T12:06:53.714Z,10.17
2019-03-25T12:07:53.710Z,10.37
2019-03-25T12:08:53.704Z,10.63
2019-03-25T12:09:53.700Z,10.44
2019-03-25T12:10:53.697Z,10.33
2019-03-25T12:11:53.692Z,10.34
2019-03-25T12:12:53.687Z,10.49
2019-03-25T12:13:53.682Z,10.71
2019-03-25T12:14:53.678Z,10.61
2019-03-25T12:15:53.674Z,10.68
2019-03-25T12:16:53.669Z,10.63
2019-03-25T12:17:53.666Z,10.75
2019-03-25T12:18:53.660Z,10.72
2019-03-25T12:19:53.656Z,10.84
2019-03-25T12:20:53.652Z,10.99
2019-03-25T12:21:53.649Z,10.78
2019-03-25T12:22:53.643Z,10.72
2019-03-25T12:23:53.639Z,10.74
2019-03-25T12:24:53.636Z,10.67
2019-03-25T12:25:53.632Z,10.71
2019-03-25T12:26:53.626Z,10.61
2019-03-25T12:27:53.622Z,10.81
2019-03-25T12:28:53.619Z,10.64
2019-03-25T12:29:53.617Z,10.79
2019-03-25T12:30:53.612Z,10.67
2019-03-25T12:31:53.605Z,10.54
2019-03-25T12:33:03.391Z,10.37
2019-03-25T12:33:53.601Z,9.19
2019-03-25T12:34:53.594Z,8.30
2019-03-25T12:35:53.588Z,7.83
2019-03-25T12:36:53.585Z,7.50
2019-03-25T12:37:53.580Z,7.28
2019-03-25T12:38:53.576Z,7.18
2019-03-25T12:39:53.576Z,7.32
2019-03-25T12:40:53.567Z,7.42
2019-03-25T12:41:53.560Z,7.57
2019-03-25T12:42:53.558Z,8.09
2019-03-25T12:43:53.550Z,8.23
2019-03-25T12:44:53.549Z,8.31
2019-03-25T12:45:53.542Z,8.44
2019-03-25T12:46:53.537Z,8.31
2019-03-25T12:47:53.533Z,8.31
2019-03-25T12:48:53.529Z,8.44
2019-03-25T12:49:53.523Z,8.56
2019-03-25T12:50:53.520Z,8.48
2019-03-25T12:51:53.513Z,8.56
2019-03-25T12:52:53.509Z,8.51
2019-03-25T12:53:53.505Z,8.48
2019-03-25T12:54:53.501Z,8.52
2019-03-25T12:55:53.494Z,8.51
2019-03-25T12:56:53.487Z,8.69
2019-03-25T12:57:53.485Z,8.97
2019-03-25T12:58:53.479Z,9.18
2019-03-25T12:59:53.474Z,9.31
2019-03-25T13:00:53.468Z,9.58
2019-03-25T13:01:53.536Z,9.62
2019-03-25T13:02:53.461Z,9.56
2019-03-25T13:03:53.455Z,9.65
2019-03-25T13:04:53.450Z,9.56
2019-03-25T13:05:53.441Z,9.51
2019-03-25T13:06:53.439Z,9.50
2019-03-25T13:07:53.434Z,9.44
2019-03-25T13:08:53.428Z,9.48
2019-03-25T13:09:53.425Z,9.69
2019-03-25T13:10:53.422Z,9.50
2019-03-25T13:11:53.414Z,9.54
2019-03-25T13:12:53.409Z,9.87
2019-03-25T13:13:53.404Z,10.01
2019-03-25T13:14:53.400Z,10.17
2019-03-25T13:15:53.394Z,10.19
2019-03-25T13:16:53.392Z,10.15
2019-03-25T13:17:53.387Z,9.62
2019-03-25T13:18:53.382Z,9.50
2019-03-25T13:19:53.378Z,9.62
2019-03-25T13:20:53.375Z,9.64
2019-03-25T13:21:53.369Z,9.56
2019-03-25T13:22:53.363Z,9.55
2019-03-25T13:23:53.358Z,9.31